Weather at Irvine Airport [CLOSED]

Public forecast

Using degrees Fahrenheit for public forecast. Weather courtesy of forecast.io.

Closest aviation weather report (METAR) to Irvine Airport

Closest report is Central Kentucky Regional Airport, 16.7 nm (30.9 km) WSW. Retrieved 2021/06/13 16:35 UTC (0 seconds ago):

KRGA 131635Z AUTO 22004KT 10SM CLR 30/22 A2996 RMK AO2

Closest aviation forecast (TAF) to Irvine Airport

Closest forecast is Julian Carroll Airport, 33.3 nm (61.7 km) ESE. Retrieved 2021/06/13 12:28 UTC (4 hours ago):

TAF KJKL 131125Z 1312/1412 00000KT P6SM FEW200 FM132100 00000KT P6SM VCTS BKN060CB FM140000 00000KT P6SM SCT050 FM140800 00000KT 1/4SM FG OVC002